createdAt,value
2019-02-11T00:02:12.235Z,97.30
2019-02-11T00:04:42.007Z,97.54
2019-02-11T00:07:11.509Z,97.69
2019-02-11T00:09:41.036Z,97.90
2019-02-11T00:12:10.535Z,98.09
2019-02-11T00:14:40.041Z,98.29
2019-02-11T00:17:09.586Z,98.46
2019-02-11T00:19:39.083Z,98.68
2019-02-11T00:22:08.589Z,98.81
2019-02-11T00:24:38.100Z,98.81
2019-02-11T00:27:07.735Z,98.80
2019-02-11T00:29:37.175Z,98.94
2019-02-11T00:32:06.710Z,99.13
2019-02-11T00:34:36.225Z,99.24
2019-02-11T00:37:05.729Z,99.29
2019-02-11T00:39:35.326Z,99.08
2019-02-11T00:42:04.837Z,98.74
2019-02-11T00:44:34.344Z,98.55
2019-02-11T00:47:03.887Z,98.34
2019-02-11T00:49:33.391Z,98.24
2019-02-11T00:52:02.951Z,97.72
2019-02-11T00:54:32.478Z,97.51
2019-02-11T00:57:01.978Z,97.28
2019-02-11T00:59:31.520Z,97.05
2019-02-11T01:02:01.029Z,96.72
2019-02-11T01:04:30.546Z,96.87
2019-02-11T01:07:00.039Z,96.86
2019-02-11T01:09:29.567Z,96.84
2019-02-11T01:11:59.070Z,96.85
2019-02-11T01:14:28.568Z,96.15
2019-02-11T01:16:58.097Z,95.17
2019-02-11T01:19:27.607Z,94.91
2019-02-11T01:21:57.138Z,94.48
2019-02-11T01:24:26.666Z,94.22
2019-02-11T01:26:56.185Z,94.11
2019-02-11T01:29:25.683Z,94.08
2019-02-11T01:31:55.450Z,94.06
2019-02-11T01:34:24.965Z,94.12
2019-02-11T01:36:54.465Z,93.92
2019-02-11T01:39:23.992Z,93.73
2019-02-11T01:41:53.492Z,94.05
2019-02-11T01:44:22.996Z,94.56
2019-02-11T01:46:52.672Z,95.05
2019-02-11T01:49:22.186Z,95.48
2019-02-11T01:51:51.687Z,95.73
2019-02-11T01:54:21.216Z,96.00
2019-02-11T01:56:50.718Z,96.48
2019-02-11T01:59:20.232Z,96.77
2019-02-11T02:01:49.937Z,97.11
2019-02-11T02:04:19.440Z,97.33
2019-02-11T02:06:48.945Z,97.55
2019-02-11T02:09:18.523Z,97.75
2019-02-11T02:11:47.984Z,97.95
2019-02-11T02:14:17.491Z,98.14
2019-02-11T02:16:47.112Z,98.27
2019-02-11T02:19:16.622Z,98.39
2019-02-11T02:21:46.127Z,98.50
2019-02-11T02:24:15.661Z,98.63
2019-02-11T02:26:45.155Z,98.66
2019-02-11T02:29:14.663Z,98.72
2019-02-11T02:31:44.187Z,98.85
2019-02-11T02:34:13.701Z,99.01
2019-02-11T02:36:43.304Z,99.05
2019-02-11T02:39:12.827Z,99.19
2019-02-11T02:41:42.334Z,99.30
2019-02-11T02:44:11.839Z,99.38
2019-02-11T02:46:41.431Z,99.46
2019-02-11T02:49:10.933Z,99.47
2019-02-11T02:51:40.950Z,99.53
2019-02-11T02:54:10.459Z,99.62
2019-02-11T02:56:39.963Z,99.81
2019-02-11T02:59:09.486Z,99.97
2019-02-11T03:01:38.991Z,100.00
2019-02-11T03:04:08.518Z,100.00
2019-02-11T03:06:38.178Z,100.00
2019-02-11T03:09:07.749Z,100.00
2019-02-11T03:11:37.298Z,100.00
2019-02-11T03:14:06.810Z,100.00
2019-02-11T03:16:36.329Z,100.00
2019-02-11T03:19:05.844Z,100.00
2019-02-11T03:21:35.342Z,100.00
2019-02-11T03:24:04.862Z,100.00
2019-02-11T03:26:34.431Z,100.00
2019-02-11T03:29:04.065Z,100.00
2019-02-11T03:31:33.572Z,100.00
2019-02-11T03:34:03.073Z,100.00
2019-02-11T03:36:32.596Z,100.00
2019-02-11T03:39:02.108Z,100.00
2019-02-11T03:41:31.801Z,100.00
2019-02-11T03:44:01.375Z,100.00
2019-02-11T03:46:30.881Z,100.00
2019-02-11T03:49:00.403Z,100.00
2019-02-11T03:51:29.917Z,100.00
2019-02-11T03:53:59.455Z,100.00
2019-02-11T03:56:28.965Z,100.00
2019-02-11T03:58:58.473Z,100.00
2019-02-11T04:01:28.011Z,100.00
2019-02-11T04:03:57.515Z,100.00
2019-02-11T04:06:27.560Z,100.00
2019-02-11T04:08:57.071Z,100.00
2019-02-11T04:11:26.575Z,100.00
2019-02-11T04:13:56.139Z,100.00
2019-02-11T04:16:25.653Z,100.00
2019-02-11T04:18:55.181Z,100.00
2019-02-11T04:21:24.706Z,100.00
2019-02-11T04:23:54.216Z,100.00
2019-02-11T04:26:23.726Z,100.00
2019-02-11T04:28:53.234Z,100.00
2019-02-11T04:31:22.758Z,100.00
2019-02-11T04:33:52.278Z,100.00
2019-02-11T04:36:21.939Z,100.00
2019-02-11T04:38:51.441Z,100.00
2019-02-11T04:41:20.956Z,100.00
2019-02-11T04:43:50.818Z,100.00
2019-02-11T04:46:20.341Z,100.00
2019-02-11T04:48:49.975Z,100.00
2019-02-11T04:51:19.478Z,99.83
2019-02-11T04:53:48.982Z,99.72
2019-02-11T04:56:18.502Z,99.69
2019-02-11T04:58:48.037Z,99.62
2019-02-11T05:01:17.534Z,99.63
2019-02-11T05:03:47.040Z,99.64
2019-02-11T05:06:16.546Z,99.47
2019-02-11T05:08:46.079Z,99.38
2019-02-11T05:11:15.562Z,99.24
2019-02-11T05:13:45.093Z,99.10
2019-02-11T05:16:14.618Z,98.86
2019-02-11T05:18:44.203Z,98.74
2019-02-11T05:21:13.710Z,98.71
2019-02-11T05:23:43.231Z,98.60
2019-02-11T05:26:12.741Z,98.50
2019-02-11T05:28:42.240Z,98.46
2019-02-11T05:31:11.785Z,98.09
2019-02-11T05:33:41.288Z,97.83
2019-02-11T05:36:11.104Z,97.73
2019-02-11T05:38:40.666Z,97.56
2019-02-11T05:41:10.178Z,97.57
2019-02-11T05:43:39.689Z,97.51
2019-02-11T05:46:09.212Z,97.36
2019-02-11T05:48:38.738Z,97.31
2019-02-11T05:51:08.309Z,97.28
2019-02-11T05:53:37.830Z,97.30
2019-02-11T05:56:07.356Z,97.31
2019-02-11T05:58:36.847Z,97.25
2019-02-11T06:01:06.387Z,97.18
2019-02-11T06:03:36.046Z,97.16
2019-02-11T06:06:05.581Z,97.17
2019-02-11T06:08:35.094Z,97.23
2019-02-11T06:11:04.664Z,97.31
2019-02-11T06:13:34.172Z,97.29
2019-02-11T06:16:03.686Z,97.20
2019-02-11T06:18:33.215Z,97.09
2019-02-11T06:21:02.771Z,97.12
2019-02-11T06:23:32.307Z,97.13
2019-02-11T06:26:01.844Z,97.17
2019-02-11T06:28:31.881Z,97.25
2019-02-11T06:31:01.390Z,97.26
2019-02-11T06:33:30.893Z,97.15
2019-02-11T06:36:00.525Z,96.95
2019-02-11T06:38:30.058Z,96.86
2019-02-11T06:40:59.587Z,96.77
2019-02-11T06:43:29.335Z,96.64
2019-02-11T06:45:58.862Z,96.55
2019-02-11T06:48:28.360Z,96.45
2019-02-11T06:50:59.613Z,96.37
2019-02-11T06:53:29.127Z,96.26
2019-02-11T06:55:58.723Z,96.33
2019-02-11T06:58:28.246Z,96.40
2019-02-11T07:00:57.774Z,96.35
2019-02-11T07:03:27.383Z,96.31
2019-02-11T07:05:56.905Z,96.08
2019-02-11T07:08:26.470Z,96.08
2019-02-11T07:10:56.035Z,96.13
2019-02-11T07:13:25.843Z,96.23
2019-02-11T07:15:55.412Z,96.37
2019-02-11T07:18:24.940Z,96.43
2019-02-11T07:20:54.467Z,96.55
2019-02-11T07:23:23.967Z,96.54
2019-02-11T07:25:53.493Z,96.51
2019-02-11T07:28:22.994Z,96.42
2019-02-11T07:30:52.588Z,96.32
2019-02-11T07:33:22.105Z,96.24
2019-02-11T07:35:51.607Z,95.98
2019-02-11T07:38:21.138Z,95.74
2019-02-11T07:40:50.644Z,95.30
2019-02-11T07:43:21.804Z,95.03
2019-02-11T07:45:52.959Z,94.98
2019-02-11T07:48:22.491Z,95.06
2019-02-11T07:50:52.092Z,95.26
2019-02-11T07:53:21.588Z,95.52
2019-02-11T07:55:51.114Z,95.81
2019-02-11T07:58:20.654Z,95.97
2019-02-11T08:00:50.154Z,96.10
2019-02-11T08:03:19.694Z,96.01
2019-02-11T08:05:49.191Z,96.04
2019-02-11T08:08:18.711Z,95.92
2019-02-11T08:10:48.218Z,95.67
2019-02-11T08:13:17.771Z,95.40
2019-02-11T08:15:47.277Z,95.08
2019-02-11T08:18:16.832Z,94.79
2019-02-11T08:20:46.394Z,94.68
2019-02-11T08:23:15.909Z,94.41
2019-02-11T08:25:45.443Z,93.97
2019-02-11T08:28:19.543Z,93.59
2019-02-11T08:30:47.841Z,92.83
2019-02-11T08:33:17.503Z,92.06
2019-02-11T08:35:47.038Z,91.89
2019-02-11T08:38:16.527Z,91.90
2019-02-11T08:40:46.036Z,91.74
2019-02-11T08:43:15.621Z,91.76
2019-02-11T08:45:46.991Z,91.75
2019-02-11T08:48:16.394Z,91.86
2019-02-11T08:50:45.915Z,91.74
2019-02-11T08:53:15.799Z,91.62
2019-02-11T08:55:45.305Z,91.51
2019-02-11T08:58:14.923Z,91.34
2019-02-11T09:00:44.429Z,91.09
2019-02-11T09:03:13.939Z,91.07
2019-02-11T09:05:43.702Z,91.06
2019-02-11T09:08:13.470Z,91.12
2019-02-11T09:10:43.034Z,91.01
2019-02-11T09:13:12.543Z,90.49
2019-02-11T09:15:42.077Z,89.72
2019-02-11T09:18:11.594Z,88.92
2019-02-11T09:20:42.153Z,88.34
2019-02-11T09:23:11.810Z,87.75
2019-02-11T09:25:41.388Z,86.14
2019-02-11T09:28:11.040Z,84.80
2019-02-11T09:30:40.836Z,83.72
2019-02-11T09:33:10.378Z,81.81
2019-02-11T09:35:39.962Z,80.43
2019-02-11T09:38:09.485Z,80.01
2019-02-11T09:40:38.996Z,79.46
2019-02-11T09:43:08.678Z,78.99
2019-02-11T09:45:38.253Z,78.66
2019-02-11T09:48:07.762Z,78.53
2019-02-11T09:50:44.135Z,78.18
2019-02-11T09:53:13.663Z,77.86
2019-02-11T09:55:43.187Z,77.71
2019-02-11T09:58:12.697Z,77.27
2019-02-11T10:00:42.220Z,76.81
2019-02-11T10:03:11.724Z,76.69
2019-02-11T10:05:41.316Z,76.81
2019-02-11T10:08:10.820Z,76.93
2019-02-11T10:10:40.322Z,77.19
2019-02-11T10:13:09.842Z,77.34
2019-02-11T10:15:39.350Z,77.58
2019-02-11T10:18:08.878Z,77.57
2019-02-11T10:20:38.387Z,77.42
2019-02-11T10:23:07.915Z,77.21
2019-02-11T10:25:37.418Z,76.51
2019-02-11T10:28:10.815Z,76.37
2019-02-11T10:30:40.829Z,76.24
2019-02-11T10:33:10.363Z,75.88
2019-02-11T10:35:42.333Z,75.87
2019-02-11T10:38:11.256Z,75.62
2019-02-11T10:40:40.807Z,75.23
2019-02-11T10:43:10.302Z,75.29
2019-02-11T10:45:39.950Z,73.63
2019-02-11T10:48:09.462Z,73.29
2019-02-11T10:50:38.972Z,72.51
2019-02-11T10:53:08.510Z,71.63
2019-02-11T10:55:38.017Z,70.26
2019-02-11T10:58:07.551Z,69.86
2019-02-11T11:00:37.861Z,69.09
2019-02-11T11:03:07.456Z,69.41
2019-02-11T11:05:36.961Z,69.28
2019-02-11T11:08:06.493Z,69.48
2019-02-11T11:10:40.644Z,69.64
2019-02-11T11:13:10.163Z,69.80
2019-02-11T11:15:39.684Z,69.07
2019-02-11T11:18:10.923Z,69.35
2019-02-11T11:20:40.456Z,69.41
2019-02-11T11:23:10.121Z,69.15
2019-02-11T11:25:39.642Z,68.76
2019-02-11T11:28:09.222Z,68.24
2019-02-11T11:30:38.886Z,68.55
2019-02-11T11:33:08.456Z,67.97
2019-02-11T11:35:37.980Z,67.85
2019-02-11T11:38:07.816Z,67.67
2019-02-11T11:40:37.584Z,67.54
2019-02-11T11:43:07.323Z,67.57
2019-02-11T11:45:36.905Z,67.11
2019-02-11T11:48:06.492Z,67.22
2019-02-11T11:50:36.093Z,66.92
2019-02-11T11:53:06.297Z,67.05
2019-02-11T11:55:35.856Z,67.44
2019-02-11T11:58:05.338Z,67.12
2019-02-11T12:00:35.798Z,67.24
2019-02-11T12:03:06.006Z,67.55
2019-02-11T12:05:35.857Z,67.40
2019-02-11T12:08:05.525Z,67.48
2019-02-11T12:10:35.213Z,67.49
2019-02-11T12:13:21.485Z,67.40
2019-02-11T12:15:36.114Z,67.47
2019-02-11T12:18:05.632Z,67.67
2019-02-11T12:20:35.232Z,67.97
2019-02-11T12:23:04.747Z,68.15
2019-02-11T12:25:34.300Z,67.04
2019-02-11T12:28:03.930Z,67.45
2019-02-11T12:30:33.409Z,67.62
2019-02-11T12:33:03.083Z,67.88
2019-02-11T12:35:32.597Z,68.24
2019-02-11T12:38:02.258Z,68.69
2019-02-11T12:40:31.842Z,69.07
2019-02-11T12:43:01.365Z,69.15
2019-02-11T12:45:30.871Z,69.21
2019-02-11T12:48:00.651Z,69.47
2019-02-11T12:50:30.158Z,69.50
2019-02-11T12:52:59.675Z,68.59
2019-02-11T12:55:29.234Z,69.05
2019-02-11T12:57:58.755Z,68.91
2019-02-11T13:00:28.272Z,68.88
2019-02-11T13:02:57.782Z,68.75
2019-02-11T13:05:44.189Z,68.46
2019-02-11T13:07:58.653Z,68.21
2019-02-11T13:10:28.262Z,67.87
2019-02-11T13:12:57.769Z,67.47
2019-02-11T13:15:56.561Z,67.31
2019-02-11T13:17:58.697Z,67.43
2019-02-11T13:20:28.235Z,67.05
2019-02-11T13:22:57.838Z,67.09
2019-02-11T13:25:27.347Z,67.00
2019-02-11T13:27:56.929Z,67.35
2019-02-11T13:30:26.842Z,66.94
2019-02-11T13:32:56.372Z,66.97
2019-02-11T13:35:25.888Z,67.14
2019-02-11T13:37:56.219Z,67.37
2019-02-11T13:40:26.205Z,67.57
2019-02-11T13:42:55.797Z,67.70
2019-02-11T13:45:25.338Z,67.79
2019-02-11T13:47:58.131Z,68.20
2019-02-11T13:50:28.423Z,68.73
2019-02-11T13:52:58.442Z,68.85
2019-02-11T13:55:30.423Z,68.79
2019-02-11T13:57:59.770Z,68.43
2019-02-11T14:00:31.308Z,68.12
2019-02-11T14:03:04.826Z,67.76
2019-02-11T14:05:34.971Z,67.55
2019-02-11T14:08:05.383Z,67.24
2019-02-11T14:10:35.062Z,67.13
2019-02-11T14:13:05.563Z,67.27
2019-02-11T14:15:35.141Z,67.53
2019-02-11T14:18:14.704Z,67.60
2019-02-11T14:20:43.726Z,67.48
2019-02-11T14:23:13.465Z,67.29
2019-02-11T14:25:46.666Z,67.58
2019-02-11T14:28:14.565Z,67.65
2019-02-11T14:30:45.999Z,67.88
2019-02-11T14:33:15.675Z,67.40
2019-02-11T14:35:45.195Z,66.51
2019-02-11T14:38:14.726Z,65.62
2019-02-11T14:40:44.232Z,64.75
2019-02-11T14:43:13.743Z,62.95
2019-02-11T14:45:43.250Z,61.92
2019-02-11T14:48:26.891Z,61.46
2019-02-11T14:50:44.089Z,60.24
2019-02-11T14:53:13.594Z,60.28
2019-02-11T14:55:43.115Z,59.90
2019-02-11T14:58:12.633Z,59.59
2019-02-11T15:00:42.169Z,59.49
2019-02-11T15:03:11.674Z,59.81
2019-02-11T15:05:41.241Z,59.75
2019-02-11T15:08:10.760Z,59.79
2019-02-11T15:10:40.776Z,60.15
2019-02-11T15:13:10.289Z,60.75
2019-02-11T15:15:39.796Z,60.24
2019-02-11T15:18:09.394Z,59.80
2019-02-11T15:20:38.896Z,59.79
2019-02-11T15:23:08.422Z,59.47
2019-02-11T15:25:37.954Z,59.65
2019-02-11T15:28:07.509Z,59.44
2019-02-11T15:30:37.100Z,59.52
2019-02-11T15:33:06.831Z,59.72
2019-02-11T15:35:36.338Z,60.11
2019-02-11T15:38:05.862Z,60.72
2019-02-11T15:40:35.483Z,61.42
2019-02-11T15:43:04.966Z,61.96
2019-02-11T15:45:34.486Z,62.36
2019-02-11T15:48:04.072Z,62.88
2019-02-11T15:50:33.599Z,63.02
2019-02-11T15:53:03.113Z,63.38
2019-02-11T15:55:32.657Z,63.70
2019-02-11T15:58:02.168Z,64.02
2019-02-11T16:00:31.680Z,64.23
2019-02-11T16:03:01.213Z,64.52
2019-02-11T16:05:30.786Z,64.64
2019-02-11T16:08:00.319Z,64.40
2019-02-11T16:10:30.210Z,64.38
2019-02-11T16:12:59.755Z,64.33
2019-02-11T16:15:29.244Z,64.26
2019-02-11T16:17:58.946Z,64.29
2019-02-11T16:20:28.726Z,64.12
2019-02-11T16:22:58.234Z,63.90
2019-02-11T16:25:27.757Z,63.73
2019-02-11T16:27:58.032Z,63.76
2019-02-11T16:30:27.669Z,63.81
2019-02-11T16:32:57.246Z,63.78
2019-02-11T16:35:26.771Z,63.84
2019-02-11T16:37:56.290Z,63.35
2019-02-11T16:40:32.587Z,63.02
2019-02-11T16:43:02.103Z,63.27
2019-02-11T16:45:31.624Z,63.37
2019-02-11T16:48:01.144Z,63.45
2019-02-11T16:50:30.652Z,63.54
2019-02-11T16:53:00.180Z,63.49
2019-02-11T16:55:29.697Z,63.61
2019-02-11T16:57:59.234Z,63.69
2019-02-11T17:00:28.829Z,63.74
2019-02-11T17:02:58.496Z,63.92
2019-02-11T17:05:27.977Z,64.15
2019-02-11T17:07:57.510Z,64.31
2019-02-11T17:10:27.093Z,64.33
2019-02-11T17:12:56.602Z,64.33
2019-02-11T17:15:26.139Z,64.10
2019-02-11T17:17:55.645Z,63.93
2019-02-11T17:20:25.174Z,63.56
2019-02-11T17:22:54.696Z,63.72
2019-02-11T17:25:24.296Z,63.57
2019-02-11T17:27:53.809Z,63.15
2019-02-11T17:30:39.083Z,62.85
2019-02-11T17:33:27.934Z,63.06
2019-02-11T17:35:57.465Z,62.78
2019-02-11T17:38:26.979Z,62.78
2019-02-11T17:40:56.702Z,62.58
2019-02-11T17:43:26.265Z,63.03
2019-02-11T17:45:56.973Z,63.26
2019-02-11T17:48:27.238Z,63.20
2019-02-11T17:50:56.830Z,63.28
2019-02-11T17:53:26.433Z,63.40
2019-02-11T17:55:55.944Z,63.69
2019-02-11T17:58:25.496Z,63.76
2019-02-11T18:00:56.685Z,63.74
2019-02-11T18:03:26.189Z,63.43
2019-02-11T18:05:55.711Z,63.50
2019-02-11T18:08:25.212Z,63.61
2019-02-11T18:10:54.742Z,63.73
2019-02-11T18:13:24.263Z,63.87
2019-02-11T18:15:53.788Z,64.05
2019-02-11T18:18:23.370Z,64.14
2019-02-11T18:20:52.894Z,64.14
2019-02-11T18:23:22.481Z,64.05
2019-02-11T18:25:51.987Z,64.14
2019-02-11T18:28:21.747Z,64.31
2019-02-11T18:30:51.281Z,64.50
2019-02-11T18:33:20.793Z,64.89
2019-02-11T18:35:50.340Z,65.21
2019-02-11T18:38:19.841Z,65.59
2019-02-11T18:40:49.359Z,65.56
2019-02-11T18:43:19.306Z,65.68
2019-02-11T18:45:48.822Z,65.71
2019-02-11T18:48:18.326Z,65.79
2019-02-11T18:50:47.884Z,65.85
2019-02-11T18:53:17.654Z,65.76
2019-02-11T18:55:47.161Z,65.87
2019-02-11T18:58:16.765Z,65.92
2019-02-11T19:00:46.270Z,66.06
2019-02-11T19:03:15.793Z,66.35
2019-02-11T19:05:45.326Z,66.48
2019-02-11T19:08:14.847Z,66.63
2019-02-11T19:10:44.385Z,66.80
2019-02-11T19:13:14.295Z,66.94
2019-02-11T19:15:43.819Z,67.09
2019-02-11T19:18:13.322Z,67.28
2019-02-11T19:20:43.044Z,67.58
2019-02-11T19:23:12.922Z,67.90
2019-02-11T19:25:42.423Z,68.09
2019-02-11T19:28:11.940Z,68.39
2019-02-11T19:30:41.569Z,68.62
2019-02-11T19:33:11.104Z,68.85
2019-02-11T19:35:40.596Z,68.98
2019-02-11T19:38:10.127Z,69.17
2019-02-11T19:40:39.733Z,69.40
2019-02-11T19:43:09.262Z,69.62
2019-02-11T19:45:38.770Z,69.60
2019-02-11T19:48:08.395Z,69.79
2019-02-11T19:50:37.909Z,70.07
2019-02-11T19:53:07.418Z,70.28
2019-02-11T19:55:36.939Z,70.31
2019-02-11T19:58:06.506Z,70.43
2019-02-11T20:00:36.110Z,70.69
2019-02-11T20:03:05.990Z,71.00
2019-02-11T20:05:35.510Z,71.37
2019-02-11T20:08:05.028Z,71.83
2019-02-11T20:10:34.554Z,72.34
2019-02-11T20:13:04.530Z,72.71
2019-02-11T20:15:34.044Z,73.02
2019-02-11T20:18:03.643Z,73.31
2019-02-11T20:20:33.147Z,73.59
2019-02-11T20:23:02.833Z,73.99
2019-02-11T20:25:32.571Z,74.54
2019-02-11T20:28:02.082Z,75.10
2019-02-11T20:30:32.419Z,75.63
2019-02-11T20:33:02.020Z,76.07
2019-02-11T20:35:31.649Z,76.67
2019-02-11T20:38:01.270Z,77.10
2019-02-11T20:40:31.148Z,77.62
2019-02-11T20:43:00.673Z,78.05
2019-02-11T20:45:30.736Z,78.31
2019-02-11T20:48:00.283Z,78.55
2019-02-11T20:50:29.959Z,78.84
2019-02-11T20:52:59.450Z,79.06
2019-02-11T20:55:28.999Z,79.23
2019-02-11T20:58:00.962Z,79.29
2019-02-11T21:00:30.498Z,79.37
2019-02-11T21:03:07.859Z,79.62
2019-02-11T21:05:31.284Z,79.87
2019-02-11T21:08:01.282Z,80.08
2019-02-11T21:10:30.789Z,80.28
2019-02-11T21:13:00.294Z,80.46
2019-02-11T21:15:29.826Z,80.62
2019-02-11T21:17:59.336Z,80.81
2019-02-11T21:20:33.411Z,80.86
2019-02-11T21:23:03.077Z,81.05
2019-02-11T21:25:32.653Z,81.03
2019-02-11T21:28:02.165Z,81.09
2019-02-11T21:30:31.783Z,81.08
2019-02-11T21:33:01.747Z,81.23
2019-02-11T21:35:31.253Z,81.29
2019-02-11T21:38:00.798Z,81.30
2019-02-11T21:40:30.315Z,81.28
2019-02-11T21:43:00.266Z,81.40
2019-02-11T21:45:29.762Z,81.54
2019-02-11T21:47:59.290Z,81.51
2019-02-11T21:50:28.812Z,81.39
2019-02-11T21:52:58.337Z,81.33
2019-02-11T21:55:27.840Z,81.41
2019-02-11T21:57:57.392Z,81.47
2019-02-11T22:00:26.928Z,81.48
2019-02-11T22:02:56.546Z,81.33
2019-02-11T22:05:26.131Z,81.25
2019-02-11T22:07:55.690Z,81.30
2019-02-11T22:10:25.525Z,81.18
2019-02-11T22:12:55.035Z,81.23
2019-02-11T22:15:24.604Z,81.48
2019-02-11T22:17:54.111Z,81.61
2019-02-11T22:20:23.925Z,81.59
2019-02-11T22:22:53.423Z,81.62
2019-02-11T22:25:22.964Z,81.60
2019-02-11T22:27:52.481Z,81.71
2019-02-11T22:30:25.666Z,81.61
2019-02-11T22:32:55.182Z,81.59
2019-02-11T22:35:24.684Z,81.51
2019-02-11T22:37:54.239Z,81.41
2019-02-11T22:40:23.750Z,81.22
2019-02-11T22:42:53.281Z,80.88
2019-02-11T22:45:28.228Z,80.63
2019-02-11T22:47:57.755Z,80.47
2019-02-11T22:50:27.291Z,80.19
2019-02-11T22:52:56.895Z,79.90
2019-02-11T22:55:26.419Z,79.61
2019-02-11T22:57:55.947Z,79.32
2019-02-11T23:00:49.235Z,79.14
2019-02-11T23:03:18.964Z,79.06
2019-02-11T23:05:48.487Z,78.90
2019-02-11T23:08:18.061Z,78.79
2019-02-11T23:10:48.237Z,78.71
2019-02-11T23:13:17.768Z,78.67
2019-02-11T23:15:47.352Z,78.58
2019-02-11T23:18:16.914Z,78.34
2019-02-11T23:20:51.734Z,78.28
2019-02-11T23:23:17.668Z,78.00
2019-02-11T23:25:47.223Z,77.73
2019-02-11T23:28:16.738Z,77.58
2019-02-11T23:30:46.564Z,77.43
2019-02-11T23:33:16.056Z,77.25
2019-02-11T23:35:45.599Z,77.23
2019-02-11T23:38:15.102Z,77.24
2019-02-11T23:40:44.836Z,77.25
2019-02-11T23:43:14.352Z,77.25
2019-02-11T23:45:43.857Z,77.15
2019-02-11T23:48:13.381Z,77.13
2019-02-11T23:50:42.899Z,77.14
2019-02-11T23:53:12.445Z,76.83
2019-02-11T23:55:41.969Z,76.84
2019-02-11T23:58:11.494Z,76.97
